sensor_id;sensor_type;location;lat;lon;timestamp;temperature;humidity
26081;DHT22;13991;51.174;4.438;2024-03-22T00:00:39;14.60;99.90
26081;DHT22;13991;51.174;4.438;2024-03-22T00:03:05;14.50;99.90
26081;DHT22;13991;51.174;4.438;2024-03-22T00:05:30;14.40;99.90
26081;DHT22;13991;51.174;4.438;2024-03-22T00:07:56;14.40;99.90
26081;DHT22;13991;51.174;4.438;2024-03-22T00:10:22;14.40;99.90
26081;DHT22;13991;51.174;4.438;2024-03-22T00:12:49;14.40;99.90
26081;DHT22;13991;51.174;4.438;2024-03-22T00:15:15;14.50;99.90
26081;DHT22;13991;51.174;4.438;2024-03-22T00:17:42;14.40;99.90
26081;DHT22;13991;51.174;4.438;2024-03-22T00:20:08;14.40;99.90
26081;DHT22;13991;51.174;4.438;2024-03-22T00:22:33;14.40;99.90
26081;DHT22;13991;51.174;4.438;2024-03-22T00:24:59;14.50;99.90
26081;DHT22;13991;51.174;4.438;2024-03-22T00:27:25;14.50;99.90
26081;DHT22;13991;51.174;4.438;2024-03-22T00:29:50;14.50;99.90
26081;DHT22;13991;51.174;4.438;2024-03-22T00:32:16;14.50;99.90
26081;DHT22;13991;51.174;4.438;2024-03-22T00:34:42;14.50;99.90
26081;DHT22;13991;51.174;4.438;2024-03-22T00:37:07;14.40;99.90
26081;DHT22;13991;51.174;4.438;2024-03-22T00:39:33;14.40;99.90
26081;DHT22;13991;51.174;4.438;2024-03-22T00:42:00;14.40;99.90
26081;DHT22;13991;51.174;4.438;2024-03-22T00:44:25;14.40;99.90
26081;DHT22;13991;51.174;4.438;2024-03-22T00:46:51;14.30;99.90
26081;DHT22;13991;51.174;4.438;2024-03-22T00:49:16;14.20;99.90
26081;DHT22;13991;51.174;4.438;2024-03-22T00:51:42;14.30;99.90
26081;DHT22;13991;51.174;4.438;2024-03-22T00:54:09;14.30;99.90
26081;DHT22;13991;51.174;4.438;2024-03-22T00:56:35;14.20;99.90
26081;DHT22;13991;51.174;4.438;2024-03-22T00:59:00;14.10;99.90
26081;DHT22;13991;51.174;4.438;2024-03-22T01:01:26;14.20;99.90
26081;DHT22;13991;51.174;4.438;2024-03-22T01:03:52;14.20;99.90
26081;DHT22;13991;51.174;4.438;2024-03-22T01:06:17;14.10;99.90
26081;DHT22;13991;51.174;4.438;2024-03-22T01:08:48;14.10;99.90
26081;DHT22;13991;51.174;4.438;2024-03-22T01:11:14;14.00;99.90
26081;DHT22;13991;51.174;4.438;2024-03-22T01:13:40;14.10;99.90
26081;DHT22;13991;51.174;4.438;2024-03-22T01:16:06;14.10;99.90
26081;DHT22;13991;51.174;4.438;2024-03-22T01:18:33;14.10;99.90
26081;DHT22;13991;51.174;4.438;2024-03-22T01:20:59;14.10;99.90
26081;DHT22;13991;51.174;4.438;2024-03-22T01:23:25;14.00;99.90
26081;DHT22;13991;51.174;4.438;2024-03-22T01:25:50;14.10;99.90
26081;DHT22;13991;51.174;4.438;2024-03-22T01:28:16;14.10;99.90
26081;DHT22;13991;51.174;4.438;2024-03-22T01:30:42;14.10;99.90
26081;DHT22;13991;51.174;4.438;2024-03-22T01:33:08;14.00;99.90
26081;DHT22;13991;51.174;4.438;2024-03-22T01:35:34;14.00;99.90
26081;DHT22;13991;51.174;4.438;2024-03-22T01:37:59;14.00;99.90
26081;DHT22;13991;51.174;4.438;2024-03-22T01:40:25;14.00;99.90
26081;DHT22;13991;51.174;4.438;2024-03-22T01:42:56;13.90;99.90
26081;DHT22;13991;51.174;4.438;2024-03-22T01:45:22;13.90;99.90
26081;DHT22;13991;51.174;4.438;2024-03-22T01:47:52;13.90;99.90
26081;DHT22;13991;51.174;4.438;2024-03-22T01:50:22;13.80;99.90
26081;DHT22;13991;51.174;4.438;2024-03-22T01:52:48;13.90;99.90
26081;DHT22;13991;51.174;4.438;2024-03-22T01:55:14;13.80;99.90
26081;DHT22;13991;51.174;4.438;2024-03-22T01:57:40;13.80;99.90
26081;DHT22;13991;51.174;4.438;2024-03-22T02:00:06;13.70;99.90
26081;DHT22;13991;51.174;4.438;2024-03-22T02:02:34;13.70;99.90
26081;DHT22;13991;51.174;4.438;2024-03-22T02:05:11;13.80;99.90
26081;DHT22;13991;51.174;4.438;2024-03-22T02:07:36;13.80;99.90
26081;DHT22;13991;51.174;4.438;2024-03-22T02:10:02;13.90;99.90
26081;DHT22;13991;51.174;4.438;2024-03-22T02:12:28;13.80;99.90
26081;DHT22;13991;51.174;4.438;2024-03-22T02:14:53;13.80;99.90
26081;DHT22;13991;51.174;4.438;2024-03-22T02:17:19;13.80;99.90
26081;DHT22;13991;51.174;4.438;2024-03-22T02:19:44;13.80;99.90
26081;DHT22;13991;51.174;4.438;2024-03-22T02:22:10;13.70;99.90
26081;DHT22;13991;51.174;4.438;2024-03-22T02:24:35;13.70;99.90
26081;DHT22;13991;51.174;4.438;2024-03-22T02:27:01;13.70;99.90
26081;DHT22;13991;51.174;4.438;2024-03-22T02:29:27;13.60;99.90
26081;DHT22;13991;51.174;4.438;2024-03-22T02:31:53;13.70;99.90
26081;DHT22;13991;51.174;4.438;2024-03-22T02:34:18;13.60;99.90
26081;DHT22;13991;51.174;4.438;2024-03-22T02:36:44;13.60;99.90
26081;DHT22;13991;51.174;4.438;2024-03-22T02:39:09;13.60;99.90
26081;DHT22;13991;51.174;4.438;2024-03-22T02:41:35;13.60;99.90
26081;DHT22;13991;51.174;4.438;2024-03-22T02:44:01;13.50;99.90
26081;DHT22;13991;51.174;4.438;2024-03-22T02:46:26;13.60;99.90
26081;DHT22;13991;51.174;4.438;2024-03-22T02:48:52;13.60;99.90
26081;DHT22;13991;51.174;4.438;2024-03-22T02:51:17;13.60;99.90
26081;DHT22;13991;51.174;4.438;2024-03-22T02:53:43;13.70;99.90
26081;DHT22;13991;51.174;4.438;2024-03-22T02:56:09;13.70;99.90
26081;DHT22;13991;51.174;4.438;2024-03-22T02:58:34;13.70;99.90
26081;DHT22;13991;51.174;4.438;2024-03-22T03:01:02;13.60;99.90
26081;DHT22;13991;51.174;4.438;2024-03-22T03:03:28;13.60;99.90
26081;DHT22;13991;51.174;4.438;2024-03-22T03:05:54;13.70;99.90
26081;DHT22;13991;51.174;4.438;2024-03-22T03:08:20;13.70;99.90
26081;DHT22;13991;51.174;4.438;2024-03-22T03:10:45;13.70;99.90
26081;DHT22;13991;51.174;4.438;2024-03-22T03:13:11;13.70;99.90
26081;DHT22;13991;51.174;4.438;2024-03-22T03:15:37;13.60;99.90
26081;DHT22;13991;51.174;4.438;2024-03-22T03:18:02;13.60;99.90
26081;DHT22;13991;51.174;4.438;2024-03-22T03:20:28;13.50;99.90
26081;DHT22;13991;51.174;4.438;2024-03-22T03:22:54;13.50;99.90
26081;DHT22;13991;51.174;4.438;2024-03-22T03:25:20;13.50;99.90
26081;DHT22;13991;51.174;4.438;2024-03-22T03:27:46;13.50;99.90
26081;DHT22;13991;51.174;4.438;2024-03-22T03:30:12;13.40;99.90
26081;DHT22;13991;51.174;4.438;2024-03-22T03:32:38;13.40;99.90
26081;DHT22;13991;51.174;4.438;2024-03-22T03:35:03;13.40;99.90
26081;DHT22;13991;51.174;4.438;2024-03-22T03:37:30;13.40;99.90
26081;DHT22;13991;51.174;4.438;2024-03-22T03:39:56;13.40;99.90
26081;DHT22;13991;51.174;4.438;2024-03-22T03:42:22;13.40;99.90
26081;DHT22;13991;51.174;4.438;2024-03-22T03:44:47;13.40;99.90
26081;DHT22;13991;51.174;4.438;2024-03-22T03:47:13;13.40;99.90
26081;DHT22;13991;51.174;4.438;2024-03-22T03:49:39;13.40;99.90
26081;DHT22;13991;51.174;4.438;2024-03-22T03:52:04;13.40;99.90
26081;DHT22;13991;51.174;4.438;2024-03-22T03:54:30;13.40;99.90
26081;DHT22;13991;51.174;4.438;2024-03-22T03:56:56;13.40;99.90
26081;DHT22;13991;51.174;4.438;2024-03-22T03:59:22;13.30;99.90
26081;DHT22;13991;51.174;4.438;2024-03-22T04:01:47;13.30;99.90
26081;DHT22;13991;51.174;4.438;2024-03-22T04:04:13;13.20;99.90
26081;DHT22;13991;51.174;4.438;2024-03-22T04:06:39;13.30;99.90
26081;DHT22;13991;51.174;4.438;2024-03-22T04:09:04;13.30;99.90
26081;DHT22;13991;51.174;4.438;2024-03-22T04:11:31;13.30;99.90
26081;DHT22;13991;51.174;4.438;2024-03-22T04:14:15;13.30;99.90
26081;DHT22;13991;51.174;4.438;2024-03-22T04:16:44;13.20;99.90
26081;DHT22;13991;51.174;4.438;2024-03-22T04:19:09;13.20;99.90
26081;DHT22;13991;51.174;4.438;2024-03-22T04:21:35;13.30;99.90
26081;DHT22;13991;51.174;4.438;2024-03-22T04:24:01;13.30;99.90
26081;DHT22;13991;51.174;4.438;2024-03-22T04:26:27;13.40;99.90
26081;DHT22;13991;51.174;4.438;2024-03-22T04:28:52;13.40;99.90
26081;DHT22;13991;51.174;4.438;2024-03-22T04:31:18;13.30;99.90
26081;DHT22;13991;51.174;4.438;2024-03-22T04:33:44;13.30;99.90
26081;DHT22;13991;51.174;4.438;2024-03-22T04:36:09;13.40;99.90
26081;DHT22;13991;51.174;4.438;2024-03-22T04:38:35;13.40;99.90
26081;DHT22;13991;51.174;4.438;2024-03-22T04:41:01;13.20;99.90
26081;DHT22;13991;51.174;4.438;2024-03-22T04:43:27;13.20;99.90
26081;DHT22;13991;51.174;4.438;2024-03-22T04:45:53;13.20;99.90
26081;DHT22;13991;51.174;4.438;2024-03-22T04:48:20;13.20;99.90
26081;DHT22;13991;51.174;4.438;2024-03-22T04:50:46;13.20;99.90
26081;DHT22;13991;51.174;4.438;2024-03-22T04:53:15;13.20;99.90
26081;DHT22;13991;51.174;4.438;2024-03-22T04:55:43;13.20;99.90
26081;DHT22;13991;51.174;4.438;2024-03-22T04:58:15;13.10;99.90
26081;DHT22;13991;51.174;4.438;2024-03-22T05:00:42;13.10;99.90
26081;DHT22;13991;51.174;4.438;2024-03-22T05:03:07;13.10;99.90
26081;DHT22;13991;51.174;4.438;2024-03-22T05:05:34;13.00;99.90
26081;DHT22;13991;51.174;4.438;2024-03-22T05:08:00;13.10;99.90
26081;DHT22;13991;51.174;4.438;2024-03-22T05:10:27;13.00;99.90
26081;DHT22;13991;51.174;4.438;2024-03-22T05:12:54;13.00;99.90
26081;DHT22;13991;51.174;4.438;2024-03-22T05:15:20;13.00;99.90
26081;DHT22;13991;51.174;4.438;2024-03-22T05:17:46;12.90;99.90
26081;DHT22;13991;51.174;4.438;2024-03-22T05:20:11;12.90;99.90
26081;DHT22;13991;51.174;4.438;2024-03-22T05:22:37;12.90;99.90
26081;DHT22;13991;51.174;4.438;2024-03-22T05:25:03;12.90;99.90
26081;DHT22;13991;51.174;4.438;2024-03-22T05:27:31;13.00;99.90
26081;DHT22;13991;51.174;4.438;2024-03-22T05:29:57;13.00;99.90
26081;DHT22;13991;51.174;4.438;2024-03-22T05:32:22;12.90;99.90
26081;DHT22;13991;51.174;4.438;2024-03-22T05:34:48;12.80;99.90
26081;DHT22;13991;51.174;4.438;2024-03-22T05:37:13;12.90;99.90
26081;DHT22;13991;51.174;4.438;2024-03-22T05:39:39;12.90;99.90
26081;DHT22;13991;51.174;4.438;2024-03-22T05:42:06;12.90;99.90
26081;DHT22;13991;51.174;4.438;2024-03-22T05:44:32;12.90;99.90
26081;DHT22;13991;51.174;4.438;2024-03-22T05:46:57;12.90;99.90
26081;DHT22;13991;51.174;4.438;2024-03-22T05:49:23;13.00;99.90
26081;DHT22;13991;51.174;4.438;2024-03-22T05:51:49;13.10;99.90
26081;DHT22;13991;51.174;4.438;2024-03-22T05:54:14;13.00;99.90
26081;DHT22;13991;51.174;4.438;2024-03-22T05:56:40;12.90;99.90
26081;DHT22;13991;51.174;4.438;2024-03-22T05:59:06;12.90;99.90
26081;DHT22;13991;51.174;4.438;2024-03-22T06:01:32;12.90;99.90
26081;DHT22;13991;51.174;4.438;2024-03-22T06:03:59;12.90;99.90
26081;DHT22;13991;51.174;4.438;2024-03-22T06:06:27;13.00;99.90
26081;DHT22;13991;51.174;4.438;2024-03-22T06:08:52;13.00;99.90
26081;DHT22;13991;51.174;4.438;2024-03-22T06:11:19;13.00;99.90
26081;DHT22;13991;51.174;4.438;2024-03-22T06:13:46;13.00;99.90
26081;DHT22;13991;51.174;4.438;2024-03-22T06:16:12;13.00;99.90
26081;DHT22;13991;51.174;4.438;2024-03-22T06:18:38;13.10;99.90
26081;DHT22;13991;51.174;4.438;2024-03-22T06:21:04;13.10;99.90
26081;DHT22;13991;51.174;4.438;2024-03-22T06:23:31;13.10;99.90
26081;DHT22;13991;51.174;4.438;2024-03-22T06:26:00;13.10;99.90
26081;DHT22;13991;51.174;4.438;2024-03-22T06:28:28;13.10;99.90
26081;DHT22;13991;51.174;4.438;2024-03-22T06:30:53;13.10;99.90
26081;DHT22;13991;51.174;4.438;2024-03-22T06:33:20;13.10;99.90
26081;DHT22;13991;51.174;4.438;2024-03-22T06:35:46;13.10;99.90
26081;DHT22;13991;51.174;4.438;2024-03-22T06:38:12;13.10;99.90
26081;DHT22;13991;51.174;4.438;2024-03-22T06:40:38;13.10;99.90
26081;DHT22;13991;51.174;4.438;2024-03-22T06:43:03;13.10;99.90
26081;DHT22;13991;51.174;4.438;2024-03-22T06:45:29;13.20;99.90
26081;DHT22;13991;51.174;4.438;2024-03-22T06:47:55;13.20;99.90
26081;DHT22;13991;51.174;4.438;2024-03-22T06:50:21;13.20;99.90
26081;DHT22;13991;51.174;4.438;2024-03-22T06:52:54;13.10;99.90
26081;DHT22;13991;51.174;4.438;2024-03-22T06:55:23;13.10;99.90
26081;DHT22;13991;51.174;4.438;2024-03-22T06:57:49;13.20;99.90
26081;DHT22;13991;51.174;4.438;2024-03-22T07:00:16;13.20;99.90
26081;DHT22;13991;51.174;4.438;2024-03-22T07:02:42;13.10;99.90
26081;DHT22;13991;51.174;4.438;2024-03-22T07:05:08;13.10;99.90
26081;DHT22;13991;51.174;4.438;2024-03-22T07:07:35;13.00;99.90
26081;DHT22;13991;51.174;4.438;2024-03-22T07:10:01;13.10;99.90
26081;DHT22;13991;51.174;4.438;2024-03-22T07:12:27;13.20;99.90
26081;DHT22;13991;51.174;4.438;2024-03-22T07:14:52;13.20;99.90
26081;DHT22;13991;51.174;4.438;2024-03-22T07:17:18;13.30;99.90
26081;DHT22;13991;51.174;4.438;2024-03-22T07:19:51;13.30;99.90
26081;DHT22;13991;51.174;4.438;2024-03-22T07:22:18;13.30;99.90
26081;DHT22;13991;51.174;4.438;2024-03-22T07:24:44;13.30;99.90
26081;DHT22;13991;51.174;4.438;2024-03-22T07:27:10;13.40;99.90
26081;DHT22;13991;51.174;4.438;2024-03-22T07:29:36;13.50;99.90
26081;DHT22;13991;51.174;4.438;2024-03-22T07:32:01;13.50;99.90
26081;DHT22;13991;51.174;4.438;2024-03-22T07:34:29;13.60;99.90
26081;DHT22;13991;51.174;4.438;2024-03-22T07:36:54;13.60;99.90
26081;DHT22;13991;51.174;4.438;2024-03-22T07:39:20;13.60;99.90
26081;DHT22;13991;51.174;4.438;2024-03-22T07:41:46;13.50;99.90
26081;DHT22;13991;51.174;4.438;2024-03-22T07:44:11;13.50;99.90
26081;DHT22;13991;51.174;4.438;2024-03-22T07:46:38;13.60;99.90
26081;DHT22;13991;51.174;4.438;2024-03-22T07:49:04;13.70;99.90
26081;DHT22;13991;51.174;4.438;2024-03-22T07:51:30;13.80;99.90
26081;DHT22;13991;51.174;4.438;2024-03-22T07:53:56;13.90;99.90
26081;DHT22;13991;51.174;4.438;2024-03-22T07:56:21;14.00;99.90
26081;DHT22;13991;51.174;4.438;2024-03-22T07:58:47;14.00;99.90
26081;DHT22;13991;51.174;4.438;2024-03-22T08:01:13;14.10;99.90
26081;DHT22;13991;51.174;4.438;2024-03-22T08:03:39;14.20;99.90
26081;DHT22;13991;51.174;4.438;2024-03-22T08:06:05;14.30;99.90
26081;DHT22;13991;51.174;4.438;2024-03-22T08:08:30;14.30;99.90
26081;DHT22;13991;51.174;4.438;2024-03-22T08:10:56;14.30;99.90
26081;DHT22;13991;51.174;4.438;2024-03-22T08:13:22;14.40;99.90
26081;DHT22;13991;51.174;4.438;2024-03-22T08:15:48;14.30;99.90
26081;DHT22;13991;51.174;4.438;2024-03-22T08:18:15;14.30;99.90
26081;DHT22;13991;51.174;4.438;2024-03-22T08:20:41;14.40;99.90
26081;DHT22;13991;51.174;4.438;2024-03-22T08:28:30;14.40;99.90
26081;DHT22;13991;51.174;4.438;2024-03-22T08:30:57;14.30;99.90
26081;DHT22;13991;51.174;4.438;2024-03-22T08:33:23;14.20;99.90
26081;DHT22;13991;51.174;4.438;2024-03-22T08:35:49;14.20;99.90
26081;DHT22;13991;51.174;4.438;2024-03-22T08:38:15;14.40;99.90
26081;DHT22;13991;51.174;4.438;2024-03-22T08:40:40;14.50;99.90
26081;DHT22;13991;51.174;4.438;2024-03-22T08:43:06;14.50;99.90
26081;DHT22;13991;51.174;4.438;2024-03-22T08:45:35;14.60;99.90
26081;DHT22;13991;51.174;4.438;2024-03-22T08:48:01;14.60;99.90
26081;DHT22;13991;51.174;4.438;2024-03-22T08:50:27;14.70;99.90
26081;DHT22;13991;51.174;4.438;2024-03-22T08:52:52;14.70;99.90
26081;DHT22;13991;51.174;4.438;2024-03-22T08:55:18;14.70;99.90
26081;DHT22;13991;51.174;4.438;2024-03-22T09:08:07;14.90;99.90
26081;DHT22;13991;51.174;4.438;2024-03-22T09:13:05;14.80;99.90
26081;DHT22;13991;51.174;4.438;2024-03-22T09:15:31;14.80;99.90
26081;DHT22;13991;51.174;4.438;2024-03-22T09:17:57;14.70;99.90
26081;DHT22;13991;51.174;4.438;2024-03-22T09:20:22;14.70;99.90
26081;DHT22;13991;51.174;4.438;2024-03-22T09:22:48;14.70;99.90
26081;DHT22;13991;51.174;4.438;2024-03-22T09:25:14;14.70;99.90
26081;DHT22;13991;51.174;4.438;2024-03-22T09:27:40;14.80;99.90
26081;DHT22;13991;51.174;4.438;2024-03-22T09:30:06;14.80;99.90
26081;DHT22;13991;51.174;4.438;2024-03-22T09:32:32;14.80;99.90
26081;DHT22;13991;51.174;4.438;2024-03-22T09:34:57;14.80;99.90
26081;DHT22;13991;51.174;4.438;2024-03-22T09:37:23;14.80;99.90
26081;DHT22;13991;51.174;4.438;2024-03-22T09:39:48;14.80;99.90
26081;DHT22;13991;51.174;4.438;2024-03-22T09:42:17;14.80;99.90
26081;DHT22;13991;51.174;4.438;2024-03-22T09:44:47;14.80;99.90
26081;DHT22;13991;51.174;4.438;2024-03-22T09:47:15;14.70;99.90
26081;DHT22;13991;51.174;4.438;2024-03-22T09:49:41;14.70;99.90
26081;DHT22;13991;51.174;4.438;2024-03-22T09:52:13;14.70;99.90
26081;DHT22;13991;51.174;4.438;2024-03-22T09:54:47;14.60;99.90
26081;DHT22;13991;51.174;4.438;2024-03-22T09:57:14;14.70;99.90
26081;DHT22;13991;51.174;4.438;2024-03-22T09:59:44;14.60;99.90
26081;DHT22;13991;51.174;4.438;2024-03-22T10:02:12;14.60;99.90
26081;DHT22;13991;51.174;4.438;2024-03-22T10:04:41;14.60;99.90
26081;DHT22;13991;51.174;4.438;2024-03-22T10:07:07;14.60;99.90
26081;DHT22;13991;51.174;4.438;2024-03-22T10:09:36;14.60;99.90
26081;DHT22;13991;51.174;4.438;2024-03-22T10:12:03;14.50;99.90
26081;DHT22;13991;51.174;4.438;2024-03-22T10:14:30;14.50;99.90
26081;DHT22;13991;51.174;4.438;2024-03-22T10:16:57;14.50;99.90
26081;DHT22;13991;51.174;4.438;2024-03-22T10:19:23;14.50;99.90
26081;DHT22;13991;51.174;4.438;2024-03-22T10:22:09;14.40;99.90
26081;DHT22;13991;51.174;4.438;2024-03-22T10:24:34;14.40;99.90
26081;DHT22;13991;51.174;4.438;2024-03-22T10:27:00;14.40;99.90
26081;DHT22;13991;51.174;4.438;2024-03-22T10:29:27;14.30;99.90
26081;DHT22;13991;51.174;4.438;2024-03-22T10:31:54;14.40;99.90
26081;DHT22;13991;51.174;4.438;2024-03-22T10:34:24;14.40;99.90
26081;DHT22;13991;51.174;4.438;2024-03-22T10:36:50;14.40;99.90
26081;DHT22;13991;51.174;4.438;2024-03-22T10:39:19;14.40;99.90
26081;DHT22;13991;51.174;4.438;2024-03-22T10:41:45;14.40;99.90
26081;DHT22;13991;51.174;4.438;2024-03-22T10:44:12;14.30;99.90
26081;DHT22;13991;51.174;4.438;2024-03-22T10:46:38;14.30;99.90
26081;DHT22;13991;51.174;4.438;2024-03-22T10:49:09;14.30;99.90
26081;DHT22;13991;51.174;4.438;2024-03-22T10:51:37;14.20;99.90
26081;DHT22;13991;51.174;4.438;2024-03-22T10:54:04;14.20;99.90
26081;DHT22;13991;51.174;4.438;2024-03-22T10:56:31;14.10;99.90
26081;DHT22;13991;51.174;4.438;2024-03-22T11:01:32;13.90;99.90
26081;DHT22;13991;51.174;4.438;2024-03-22T11:04:05;13.70;99.90
26081;DHT22;13991;51.174;4.438;2024-03-22T11:06:37;13.70;99.90
26081;DHT22;13991;51.174;4.438;2024-03-22T11:09:03;13.70;99.90
26081;DHT22;13991;51.174;4.438;2024-03-22T11:11:32;13.70;99.90
26081;DHT22;13991;51.174;4.438;2024-03-22T11:14:03;13.80;99.90
26081;DHT22;13991;51.174;4.438;2024-03-22T11:16:30;13.80;99.90
26081;DHT22;13991;51.174;4.438;2024-03-22T11:18:56;13.90;99.90
26081;DHT22;13991;51.174;4.438;2024-03-22T11:21:22;13.90;99.90
26081;DHT22;13991;51.174;4.438;2024-03-22T11:23:52;14.00;99.90
26081;DHT22;13991;51.174;4.438;2024-03-22T11:31:30;14.00;99.90
26081;DHT22;13991;51.174;4.438;2024-03-22T11:33:56;14.00;99.90
26081;DHT22;13991;51.174;4.438;2024-03-22T11:38:57;14.20;99.90
26081;DHT22;13991;51.174;4.438;2024-03-22T11:41:26;14.20;99.90
26081;DHT22;13991;51.174;4.438;2024-03-22T11:43:53;14.20;99.90
26081;DHT22;13991;51.174;4.438;2024-03-22T11:46:20;14.20;99.90
26081;DHT22;13991;51.174;4.438;2024-03-22T11:48:54;14.30;99.90
26081;DHT22;13991;51.174;4.438;2024-03-22T11:51:20;14.20;99.90
26081;DHT22;13991;51.174;4.438;2024-03-22T11:53:51;14.20;99.90
26081;DHT22;13991;51.174;4.438;2024-03-22T11:56:20;14.00;99.90
26081;DHT22;13991;51.174;4.438;2024-03-22T12:03:57;14.00;99.90
26081;DHT22;13991;51.174;4.438;2024-03-22T12:06:23;14.00;99.90
26081;DHT22;13991;51.174;4.438;2024-03-22T12:08:49;14.00;99.90
26081;DHT22;13991;51.174;4.438;2024-03-22T12:13:49;14.10;99.90
26081;DHT22;13991;51.174;4.438;2024-03-22T12:16:15;14.10;99.90
26081;DHT22;13991;51.174;4.438;2024-03-22T12:18:41;14.10;99.90
26081;DHT22;13991;51.174;4.438;2024-03-22T12:21:07;14.00;99.90
26081;DHT22;13991;51.174;4.438;2024-03-22T12:28:44;13.90;99.90
26081;DHT22;13991;51.174;4.438;2024-03-22T12:31:10;13.90;99.90
26081;DHT22;13991;51.174;4.438;2024-03-22T12:33:36;14.00;99.90
26081;DHT22;13991;51.174;4.438;2024-03-22T12:36:03;14.00;99.90
26081;DHT22;13991;51.174;4.438;2024-03-22T12:38:30;14.00;99.90
26081;DHT22;13991;51.174;4.438;2024-03-22T12:40:56;14.00;99.90
26081;DHT22;13991;51.174;4.438;2024-03-22T12:43:22;14.00;99.90
26081;DHT22;13991;51.174;4.438;2024-03-22T12:45:48;14.00;99.90
26081;DHT22;13991;51.174;4.438;2024-03-22T12:48:13;14.10;99.90
26081;DHT22;13991;51.174;4.438;2024-03-22T12:50:39;14.10;99.90
26081;DHT22;13991;51.174;4.438;2024-03-22T12:53:04;14.10;99.90
26081;DHT22;13991;51.174;4.438;2024-03-22T12:55:30;14.10;99.90
26081;DHT22;13991;51.174;4.438;2024-03-22T12:57:57;14.10;99.90
26081;DHT22;13991;51.174;4.438;2024-03-22T13:00:23;14.10;99.90
26081;DHT22;13991;51.174;4.438;2024-03-22T13:02:48;14.10;99.90
26081;DHT22;13991;51.174;4.438;2024-03-22T13:05:14;14.20;99.90
26081;DHT22;13991;51.174;4.438;2024-03-22T13:07:41;14.10;99.90
26081;DHT22;13991;51.174;4.438;2024-03-22T13:10:08;14.20;99.90
26081;DHT22;13991;51.174;4.438;2024-03-22T13:12:34;14.10;99.90
26081;DHT22;13991;51.174;4.438;2024-03-22T13:15:00;14.10;99.90
26081;DHT22;13991;51.174;4.438;2024-03-22T13:17:27;14.10;99.90
26081;DHT22;13991;51.174;4.438;2024-03-22T13:19:53;14.00;99.90
26081;DHT22;13991;51.174;4.438;2024-03-22T13:22:19;14.00;99.90
26081;DHT22;13991;51.174;4.438;2024-03-22T13:24:45;13.90;99.90
26081;DHT22;13991;51.174;4.438;2024-03-22T13:27:12;13.90;99.90
26081;DHT22;13991;51.174;4.438;2024-03-22T13:29:41;13.90;99.90
26081;DHT22;13991;51.174;4.438;2024-03-22T13:32:07;13.90;99.90
26081;DHT22;13991;51.174;4.438;2024-03-22T13:34:39;14.00;99.90
26081;DHT22;13991;51.174;4.438;2024-03-22T13:37:04;14.10;99.90
26081;DHT22;13991;51.174;4.438;2024-03-22T13:39:31;14.10;99.90
26081;DHT22;13991;51.174;4.438;2024-03-22T13:41:57;14.10;99.90
26081;DHT22;13991;51.174;4.438;2024-03-22T13:44:24;14.10;99.90
26081;DHT22;13991;51.174;4.438;2024-03-22T13:46:50;14.00;99.90
26081;DHT22;13991;51.174;4.438;2024-03-22T13:49:18;14.00;99.90
26081;DHT22;13991;51.174;4.438;2024-03-22T13:51:46;14.10;99.90
26081;DHT22;13991;51.174;4.438;2024-03-22T13:54:12;14.10;99.90
26081;DHT22;13991;51.174;4.438;2024-03-22T13:56:38;14.00;99.90
26081;DHT22;13991;51.174;4.438;2024-03-22T13:59:04;14.10;99.90
26081;DHT22;13991;51.174;4.438;2024-03-22T14:01:36;14.10;99.90
26081;DHT22;13991;51.174;4.438;2024-03-22T14:04:05;14.10;99.90
26081;DHT22;13991;51.174;4.438;2024-03-22T14:06:32;14.20;99.90
26081;DHT22;13991;51.174;4.438;2024-03-22T14:08:58;14.10;99.90
26081;DHT22;13991;51.174;4.438;2024-03-22T14:11:27;14.10;99.90
26081;DHT22;13991;51.174;4.438;2024-03-22T14:13:53;14.00;99.90
26081;DHT22;13991;51.174;4.438;2024-03-22T14:16:19;13.90;99.90
26081;DHT22;13991;51.174;4.438;2024-03-22T14:18:45;13.90;99.90
26081;DHT22;13991;51.174;4.438;2024-03-22T14:21:11;13.90;99.90
26081;DHT22;13991;51.174;4.438;2024-03-22T14:23:39;13.90;99.90
26081;DHT22;13991;51.174;4.438;2024-03-22T14:26:05;13.90;99.90
26081;DHT22;13991;51.174;4.438;2024-03-22T14:28:31;13.90;99.90
26081;DHT22;13991;51.174;4.438;2024-03-22T14:30:56;13.80;99.90
26081;DHT22;13991;51.174;4.438;2024-03-22T14:33:22;13.90;99.90
26081;DHT22;13991;51.174;4.438;2024-03-22T14:35:48;13.90;99.90
26081;DHT22;13991;51.174;4.438;2024-03-22T14:38:14;13.90;99.90
26081;DHT22;13991;51.174;4.438;2024-03-22T14:40:39;13.90;99.90
26081;DHT22;13991;51.174;4.438;2024-03-22T14:43:06;13.80;99.90
26081;DHT22;13991;51.174;4.438;2024-03-22T14:45:31;13.90;99.90
26081;DHT22;13991;51.174;4.438;2024-03-22T14:47:57;14.00;99.90
26081;DHT22;13991;51.174;4.438;2024-03-22T14:50:23;14.00;99.90
26081;DHT22;13991;51.174;4.438;2024-03-22T14:52:49;13.90;99.90
26081;DHT22;13991;51.174;4.438;2024-03-22T14:55:15;13.90;99.90
26081;DHT22;13991;51.174;4.438;2024-03-22T14:57:41;13.90;99.90
26081;DHT22;13991;51.174;4.438;2024-03-22T15:00:07;13.80;99.90
26081;DHT22;13991;51.174;4.438;2024-03-22T15:02:36;13.70;99.90
26081;DHT22;13991;51.174;4.438;2024-03-22T15:05:03;13.70;99.90
26081;DHT22;13991;51.174;4.438;2024-03-22T15:07:30;13.80;99.90
26081;DHT22;13991;51.174;4.438;2024-03-22T15:09:56;13.80;99.90
26081;DHT22;13991;51.174;4.438;2024-03-22T15:12:22;13.80;99.90
26081;DHT22;13991;51.174;4.438;2024-03-22T15:14:51;13.70;99.90
26081;DHT22;13991;51.174;4.438;2024-03-22T15:17:18;13.70;99.90
26081;DHT22;13991;51.174;4.438;2024-03-22T15:19:48;13.70;99.90
26081;DHT22;13991;51.174;4.438;2024-03-22T15:22:14;13.70;99.90
26081;DHT22;13991;51.174;4.438;2024-03-22T15:24:46;13.60;99.90
26081;DHT22;13991;51.174;4.438;2024-03-22T15:27:12;13.60;99.90
26081;DHT22;13991;51.174;4.438;2024-03-22T15:29:38;13.60;99.90
26081;DHT22;13991;51.174;4.438;2024-03-22T15:32:04;13.50;99.90
26081;DHT22;13991;51.174;4.438;2024-03-22T15:34:30;13.60;99.90
26081;DHT22;13991;51.174;4.438;2024-03-22T15:36:56;13.40;99.90
26081;DHT22;13991;51.174;4.438;2024-03-22T15:39:22;13.60;99.90
26081;DHT22;13991;51.174;4.438;2024-03-22T15:41:54;13.60;99.90
26081;DHT22;13991;51.174;4.438;2024-03-22T15:44:20;13.60;99.90
26081;DHT22;13991;51.174;4.438;2024-03-22T15:46:45;13.70;99.90
26081;DHT22;13991;51.174;4.438;2024-03-22T15:49:12;13.70;99.90
26081;DHT22;13991;51.174;4.438;2024-03-22T15:51:38;13.60;99.90
26081;DHT22;13991;51.174;4.438;2024-03-22T15:54:07;13.60;99.90
26081;DHT22;13991;51.174;4.438;2024-03-22T15:56:33;13.60;99.90
26081;DHT22;13991;51.174;4.438;2024-03-22T15:59:00;13.50;99.90
26081;DHT22;13991;51.174;4.438;2024-03-22T16:01:26;13.50;99.90
26081;DHT22;13991;51.174;4.438;2024-03-22T16:03:55;13.50;99.90
26081;DHT22;13991;51.174;4.438;2024-03-22T16:06:21;13.60;99.90